sensor_id;sensor_type;location;lat;lon;timestamp;P1;durP1;ratioP1;P2;durP2;ratioP2
50064;SDS011;35951;47.848;-122.338;2022-09-24T00:01:47;0.50;;;0.10;;
50064;SDS011;35951;47.848;-122.338;2022-09-24T00:04:16;2.92;;;0.10;;
50064;SDS011;35951;47.848;-122.338;2022-09-24T00:06:46;2.83;;;0.10;;
50064;SDS011;35951;47.848;-122.338;2022-09-24T00:09:15;7.53;;;0.10;;
50064;SDS011;35951;47.848;-122.338;2022-09-24T00:11:50;10.98;;;0.17;;
50064;SDS011;35951;47.848;-122.338;2022-09-24T00:14:18;0.72;;;0.20;;
50064;SDS011;35951;47.848;-122.338;2022-09-24T00:16:46;0.65;;;0.10;;
50064;SDS011;35951;47.848;-122.338;2022-09-24T00:19:14;1.00;;;0.10;;
50064;SDS011;35951;47.848;-122.338;2022-09-24T00:21:42;1.17;;;0.10;;
50064;SDS011;35951;47.848;-122.338;2022-09-24T00:24:11;0.80;;;0.10;;
50064;SDS011;35951;47.848;-122.338;2022-09-24T00:26:58;0.57;;;0.10;;
50064;SDS011;35951;47.848;-122.338;2022-09-24T00:29:27;0.37;;;0.10;;
50064;SDS011;35951;47.848;-122.338;2022-09-24T00:31:56;0.65;;;0.10;;
50064;SDS011;35951;47.848;-122.338;2022-09-24T00:34:24;0.98;;;0.10;;
50064;SDS011;35951;47.848;-122.338;2022-09-24T00:36:51;0.35;;;0.10;;
50064;SDS011;35951;47.848;-122.338;2022-09-24T00:39:19;0.80;;;0.10;;
50064;SDS011;35951;47.848;-122.338;2022-09-24T00:41:47;2.50;;;0.10;;
50064;SDS011;35951;47.848;-122.338;2022-09-24T00:47:23;2.08;;;0.10;;
50064;SDS011;35951;47.848;-122.338;2022-09-24T00:52:49;1.35;;;0.10;;
50064;SDS011;35951;47.848;-122.338;2022-09-24T00:55:19;0.42;;;0.10;;
50064;SDS011;35951;47.848;-122.338;2022-09-24T00:57:50;0.95;;;0.10;;
50064;SDS011;35951;47.848;-122.338;2022-09-24T01:00:23;1.77;;;0.10;;
50064;SDS011;35951;47.848;-122.338;2022-09-24T01:02:54;0.40;;;0.10;;
50064;SDS011;35951;47.848;-122.338;2022-09-24T01:05:24;0.78;;;0.10;;
50064;SDS011;35951;47.848;-122.338;2022-09-24T01:07:52;0.40;;;0.10;;
50064;SDS011;35951;47.848;-122.338;2022-09-24T01:10:22;1.72;;;0.10;;
50064;SDS011;35951;47.848;-122.338;2022-09-24T01:16:11;0.78;;;0.10;;
50064;SDS011;35951;47.848;-122.338;2022-09-24T01:31:02;0.33;;;0.10;;
50064;SDS011;35951;47.848;-122.338;2022-09-24T01:33:39;0.47;;;0.10;;
50064;SDS011;35951;47.848;-122.338;2022-09-24T01:36:11;0.40;;;0.10;;
50064;SDS011;35951;47.848;-122.338;2022-09-24T01:38:41;0.88;;;0.10;;
50064;SDS011;35951;47.848;-122.338;2022-09-24T01:41:11;0.20;;;0.00;;
50064;SDS011;35951;47.848;-122.338;2022-09-24T01:43:40;1.32;;;0.10;;
50064;SDS011;35951;47.848;-122.338;2022-09-24T01:48:37;2.40;;;0.10;;
50064;SDS011;35951;47.848;-122.338;2022-09-24T01:54:01;0.60;;;0.00;;
50064;SDS011;35951;47.848;-122.338;2022-09-24T01:56:51;1.65;;;0.10;;
50064;SDS011;35951;47.848;-122.338;2022-09-24T01:59:30;5.35;;;0.10;;
50064;SDS011;35951;47.848;-122.338;2022-09-24T02:04:57;0.40;;;0.10;;
50064;SDS011;35951;47.848;-122.338;2022-09-24T02:07:41;1.27;;;0.10;;
50064;SDS011;35951;47.848;-122.338;2022-09-24T02:10:13;0.47;;;0.10;;
50064;SDS011;35951;47.848;-122.338;2022-09-24T02:12:43;1.95;;;0.10;;
50064;SDS011;35951;47.848;-122.338;2022-09-24T02:15:17;0.40;;;0.10;;
50064;SDS011;35951;47.848;-122.338;2022-09-24T02:17:49;1.80;;;0.10;;
50064;SDS011;35951;47.848;-122.338;2022-09-24T02:20:20;0.53;;;0.10;;
50064;SDS011;35951;47.848;-122.338;2022-09-24T02:22:51;2.10;;;0.03;;
50064;SDS011;35951;47.848;-122.338;2022-09-24T02:25:31;0.78;;;0.10;;
50064;SDS011;35951;47.848;-122.338;2022-09-24T02:27:58;0.45;;;0.10;;
50064;SDS011;35951;47.848;-122.338;2022-09-24T02:30:28;1.22;;;0.10;;
50064;SDS011;35951;47.848;-122.338;2022-09-24T02:33:00;0.30;;;0.00;;
50064;SDS011;35951;47.848;-122.338;2022-09-24T02:35:30;4.15;;;0.10;;
50064;SDS011;35951;47.848;-122.338;2022-09-24T02:37:58;2.58;;;0.10;;
50064;SDS011;35951;47.848;-122.338;2022-09-24T02:40:28;1.62;;;0.13;;
50064;SDS011;35951;47.848;-122.338;2022-09-24T02:42:56;0.50;;;0.10;;
50064;SDS011;35951;47.848;-122.338;2022-09-24T02:45:24;1.22;;;0.10;;
50064;SDS011;35951;47.848;-122.338;2022-09-24T02:47:52;1.02;;;0.10;;
50064;SDS011;35951;47.848;-122.338;2022-09-24T02:50:20;0.50;;;0.10;;
50064;SDS011;35951;47.848;-122.338;2022-09-24T02:52:48;0.30;;;0.10;;
50064;SDS011;35951;47.848;-122.338;2022-09-24T02:55:16;0.72;;;0.10;;
50064;SDS011;35951;47.848;-122.338;2022-09-24T02:57:44;5.53;;;0.10;;
50064;SDS011;35951;47.848;-122.338;2022-09-24T03:00:12;0.62;;;0.10;;
50064;SDS011;35951;47.848;-122.338;2022-09-24T03:02:40;2.83;;;0.10;;
50064;SDS011;35951;47.848;-122.338;2022-09-24T03:05:08;2.08;;;0.20;;
50064;SDS011;35951;47.848;-122.338;2022-09-24T03:07:35;1.85;;;0.10;;
50064;SDS011;35951;47.848;-122.338;2022-09-24T03:10:03;1.95;;;0.10;;
50064;SDS011;35951;47.848;-122.338;2022-09-24T03:12:32;0.82;;;0.10;;
50064;SDS011;35951;47.848;-122.338;2022-09-24T03:14:59;1.10;;;0.10;;
50064;SDS011;35951;47.848;-122.338;2022-09-24T03:17:27;0.40;;;0.10;;
50064;SDS011;35951;47.848;-122.338;2022-09-24T03:19:54;0.60;;;0.10;;
50064;SDS011;35951;47.848;-122.338;2022-09-24T03:22:22;0.70;;;0.10;;
50064;SDS011;35951;47.848;-122.338;2022-09-24T03:24:49;1.52;;;0.20;;
50064;SDS011;35951;47.848;-122.338;2022-09-24T03:27:18;3.80;;;0.10;;
50064;SDS011;35951;47.848;-122.338;2022-09-24T03:29:46;0.60;;;0.10;;
50064;SDS011;35951;47.848;-122.338;2022-09-24T03:32:32;0.30;;;0.00;;
50064;SDS011;35951;47.848;-122.338;2022-09-24T03:35:00;0.35;;;0.10;;
50064;SDS011;35951;47.848;-122.338;2022-09-24T03:37:28;1.83;;;0.10;;
50064;SDS011;35951;47.848;-122.338;2022-09-24T03:39:58;0.28;;;0.10;;
50064;SDS011;35951;47.848;-122.338;2022-09-24T03:42:26;0.28;;;0.05;;
50064;SDS011;35951;47.848;-122.338;2022-09-24T03:44:54;0.30;;;0.10;;
50064;SDS011;35951;47.848;-122.338;2022-09-24T03:47:23;0.23;;;0.10;;
50064;SDS011;35951;47.848;-122.338;2022-09-24T03:49:51;0.95;;;0.20;;
50064;SDS011;35951;47.848;-122.338;2022-09-24T03:52:19;1.55;;;0.10;;
50064;SDS011;35951;47.848;-122.338;2022-09-24T03:54:47;0.80;;;0.20;;
50064;SDS011;35951;47.848;-122.338;2022-09-24T03:57:16;0.72;;;0.10;;
50064;SDS011;35951;47.848;-122.338;2022-09-24T03:59:44;0.37;;;0.10;;
50064;SDS011;35951;47.848;-122.338;2022-09-24T04:02:13;2.62;;;0.10;;
50064;SDS011;35951;47.848;-122.338;2022-09-24T04:04:41;0.90;;;0.10;;
50064;SDS011;35951;47.848;-122.338;2022-09-24T04:07:09;3.58;;;0.10;;
50064;SDS011;35951;47.848;-122.338;2022-09-24T04:09:37;0.47;;;0.10;;
50064;SDS011;35951;47.848;-122.338;2022-09-24T04:12:06;0.47;;;0.10;;
50064;SDS011;35951;47.848;-122.338;2022-09-24T04:14:34;1.67;;;0.10;;
50064;SDS011;35951;47.848;-122.338;2022-09-24T04:17:02;0.50;;;0.10;;
50064;SDS011;35951;47.848;-122.338;2022-09-24T04:19:30;0.35;;;0.10;;
50064;SDS011;35951;47.848;-122.338;2022-09-24T04:21:58;1.17;;;0.10;;
50064;SDS011;35951;47.848;-122.338;2022-09-24T04:24:26;0.45;;;0.10;;
50064;SDS011;35951;47.848;-122.338;2022-09-24T04:26:53;1.07;;;0.20;;
50064;SDS011;35951;47.848;-122.338;2022-09-24T04:29:22;1.95;;;0.13;;
50064;SDS011;35951;47.848;-122.338;2022-09-24T04:31:49;0.78;;;0.10;;
50064;SDS011;35951;47.848;-122.338;2022-09-24T04:34:17;1.05;;;0.10;;
50064;SDS011;35951;47.848;-122.338;2022-09-24T04:36:45;0.47;;;0.10;;
50064;SDS011;35951;47.848;-122.338;2022-09-24T04:39:14;2.65;;;0.20;;
50064;SDS011;35951;47.848;-122.338;2022-09-24T04:41:41;0.93;;;0.10;;
50064;SDS011;35951;47.848;-122.338;2022-09-24T04:44:11;3.72;;;0.10;;
50064;SDS011;35951;47.848;-122.338;2022-09-24T04:46:39;0.53;;;0.20;;
50064;SDS011;35951;47.848;-122.338;2022-09-24T04:49:07;1.95;;;0.10;;
50064;SDS011;35951;47.848;-122.338;2022-09-24T04:51:35;1.05;;;0.10;;
50064;SDS011;35951;47.848;-122.338;2022-09-24T04:54:03;1.30;;;0.10;;
50064;SDS011;35951;47.848;-122.338;2022-09-24T04:56:31;0.80;;;0.30;;
50064;SDS011;35951;47.848;-122.338;2022-09-24T04:58:59;2.43;;;0.13;;
50064;SDS011;35951;47.848;-122.338;2022-09-24T05:01:29;0.30;;;0.10;;
50064;SDS011;35951;47.848;-122.338;2022-09-24T05:03:57;0.78;;;0.20;;
50064;SDS011;35951;47.848;-122.338;2022-09-24T05:06:25;1.27;;;0.10;;
50064;SDS011;35951;47.848;-122.338;2022-09-24T05:08:53;0.42;;;0.10;;
50064;SDS011;35951;47.848;-122.338;2022-09-24T05:11:21;0.50;;;0.13;;
50064;SDS011;35951;47.848;-122.338;2022-09-24T05:13:49;0.53;;;0.17;;
50064;SDS011;35951;47.848;-122.338;2022-09-24T05:16:17;1.10;;;0.17;;
50064;SDS011;35951;47.848;-122.338;2022-09-24T05:18:45;1.00;;;0.20;;
50064;SDS011;35951;47.848;-122.338;2022-09-24T05:21:13;0.40;;;0.10;;
50064;SDS011;35951;47.848;-122.338;2022-09-24T05:23:41;2.77;;;0.10;;
50064;SDS011;35951;47.848;-122.338;2022-09-24T05:26:09;0.45;;;0.10;;
50064;SDS011;35951;47.848;-122.338;2022-09-24T05:28:55;1.02;;;0.20;;
50064;SDS011;35951;47.848;-122.338;2022-09-24T05:31:23;2.90;;;0.20;;
50064;SDS011;35951;47.848;-122.338;2022-09-24T05:33:51;1.55;;;0.20;;
50064;SDS011;35951;47.848;-122.338;2022-09-24T05:36:19;0.72;;;0.20;;
50064;SDS011;35951;47.848;-122.338;2022-09-24T05:38:48;2.20;;;0.20;;
50064;SDS011;35951;47.848;-122.338;2022-09-24T05:41:16;0.82;;;0.10;;
50064;SDS011;35951;47.848;-122.338;2022-09-24T05:43:45;0.40;;;0.10;;
50064;SDS011;35951;47.848;-122.338;2022-09-24T05:46:13;0.55;;;0.20;;
50064;SDS011;35951;47.848;-122.338;2022-09-24T05:48:43;0.35;;;0.10;;
50064;SDS011;35951;47.848;-122.338;2022-09-24T05:51:10;0.75;;;0.10;;
50064;SDS011;35951;47.848;-122.338;2022-09-24T05:53:38;5.08;;;0.10;;
50064;SDS011;35951;47.848;-122.338;2022-09-24T05:56:06;0.60;;;0.10;;
50064;SDS011;35951;47.848;-122.338;2022-09-24T05:58:34;0.80;;;0.20;;
50064;SDS011;35951;47.848;-122.338;2022-09-24T06:01:03;2.00;;;0.20;;
50064;SDS011;35951;47.848;-122.338;2022-09-24T06:03:40;0.82;;;0.13;;
50064;SDS011;35951;47.848;-122.338;2022-09-24T06:06:08;0.80;;;0.10;;
50064;SDS011;35951;47.848;-122.338;2022-09-24T06:08:36;1.57;;;0.10;;
50064;SDS011;35951;47.848;-122.338;2022-09-24T06:11:05;5.40;;;0.20;;
50064;SDS011;35951;47.848;-122.338;2022-09-24T06:13:37;1.57;;;0.20;;
50064;SDS011;35951;47.848;-122.338;2022-09-24T06:16:05;0.60;;;0.10;;
50064;SDS011;35951;47.848;-122.338;2022-09-24T06:18:35;0.40;;;0.10;;
50064;SDS011;35951;47.848;-122.338;2022-09-24T06:21:06;0.60;;;0.10;;
50064;SDS011;35951;47.848;-122.338;2022-09-24T06:23:40;0.75;;;0.10;;
50064;SDS011;35951;47.848;-122.338;2022-09-24T06:26:10;4.55;;;0.20;;
50064;SDS011;35951;47.848;-122.338;2022-09-24T06:28:40;1.10;;;0.10;;
50064;SDS011;35951;47.848;-122.338;2022-09-24T06:31:08;1.65;;;0.10;;
50064;SDS011;35951;47.848;-122.338;2022-09-24T06:33:37;2.47;;;0.13;;
50064;SDS011;35951;47.848;-122.338;2022-09-24T06:36:05;0.85;;;0.10;;
50064;SDS011;35951;47.848;-122.338;2022-09-24T06:38:34;1.17;;;0.10;;
50064;SDS011;35951;47.848;-122.338;2022-09-24T06:41:04;2.35;;;0.20;;
50064;SDS011;35951;47.848;-122.338;2022-09-24T06:46:00;1.15;;;0.20;;
50064;SDS011;35951;47.848;-122.338;2022-09-24T06:48:29;0.20;;;0.10;;
50064;SDS011;35951;47.848;-122.338;2022-09-24T06:50:58;0.75;;;0.10;;
50064;SDS011;35951;47.848;-122.338;2022-09-24T06:53:26;0.47;;;0.10;;
50064;SDS011;35951;47.848;-122.338;2022-09-24T06:55:55;2.08;;;0.10;;
50064;SDS011;35951;47.848;-122.338;2022-09-24T06:58:24;1.00;;;0.10;;
50064;SDS011;35951;47.848;-122.338;2022-09-24T07:03:59;0.82;;;0.17;;
50064;SDS011;35951;47.848;-122.338;2022-09-24T07:06:27;0.40;;;0.20;;
50064;SDS011;35951;47.848;-122.338;2022-09-24T07:08:56;2.75;;;0.20;;
50064;SDS011;35951;47.848;-122.338;2022-09-24T07:11:25;0.78;;;0.10;;
50064;SDS011;35951;47.848;-122.338;2022-09-24T07:13:53;0.53;;;0.10;;
50064;SDS011;35951;47.848;-122.338;2022-09-24T07:16:21;0.70;;;0.10;;
50064;SDS011;35951;47.848;-122.338;2022-09-24T07:18:48;0.72;;;0.15;;
50064;SDS011;35951;47.848;-122.338;2022-09-24T07:21:16;1.00;;;0.17;;
50064;SDS011;35951;47.848;-122.338;2022-09-24T07:23:44;0.40;;;0.10;;
50064;SDS011;35951;47.848;-122.338;2022-09-24T07:26:11;0.60;;;0.20;;
50064;SDS011;35951;47.848;-122.338;2022-09-24T07:28:39;0.60;;;0.20;;
50064;SDS011;35951;47.848;-122.338;2022-09-24T07:31:06;0.95;;;0.20;;
50064;SDS011;35951;47.848;-122.338;2022-09-24T07:33:34;0.85;;;0.13;;
50064;SDS011;35951;47.848;-122.338;2022-09-24T07:36:05;0.90;;;0.20;;
50064;SDS011;35951;47.848;-122.338;2022-09-24T07:38:33;4.03;;;0.20;;
50064;SDS011;35951;47.848;-122.338;2022-09-24T07:41:03;2.05;;;0.20;;
50064;SDS011;35951;47.848;-122.338;2022-09-24T07:43:33;0.50;;;0.20;;
50064;SDS011;35951;47.848;-122.338;2022-09-24T07:46:01;1.23;;;0.20;;
50064;SDS011;35951;47.848;-122.338;2022-09-24T07:48:29;0.53;;;0.10;;
50064;SDS011;35951;47.848;-122.338;2022-09-24T07:50:57;0.93;;;0.20;;
50064;SDS011;35951;47.848;-122.338;2022-09-24T07:53:25;0.60;;;0.20;;
50064;SDS011;35951;47.848;-122.338;2022-09-24T07:55:57;0.50;;;0.15;;
50064;SDS011;35951;47.848;-122.338;2022-09-24T07:58:24;3.17;;;0.30;;
50064;SDS011;35951;47.848;-122.338;2022-09-24T08:00:55;4.37;;;0.20;;
50064;SDS011;35951;47.848;-122.338;2022-09-24T08:03:25;0.90;;;0.17;;
50064;SDS011;35951;47.848;-122.338;2022-09-24T08:05:53;1.12;;;0.20;;
50064;SDS011;35951;47.848;-122.338;2022-09-24T08:08:24;0.70;;;0.10;;
50064;SDS011;35951;47.848;-122.338;2022-09-24T08:10:52;3.83;;;0.20;;
50064;SDS011;35951;47.848;-122.338;2022-09-24T08:13:20;8.13;;;0.20;;
50064;SDS011;35951;47.848;-122.338;2022-09-24T08:15:54;0.47;;;0.10;;
50064;SDS011;35951;47.848;-122.338;2022-09-24T08:18:24;0.65;;;0.10;;
50064;SDS011;35951;47.848;-122.338;2022-09-24T08:20:53;6.37;;;0.17;;
50064;SDS011;35951;47.848;-122.338;2022-09-24T08:23:21;0.53;;;0.10;;
50064;SDS011;35951;47.848;-122.338;2022-09-24T08:25:49;1.87;;;0.10;;
50064;SDS011;35951;47.848;-122.338;2022-09-24T08:28:19;0.20;;;0.10;;
50064;SDS011;35951;47.848;-122.338;2022-09-24T08:30:48;0.42;;;0.10;;
50064;SDS011;35951;47.848;-122.338;2022-09-24T08:33:16;0.45;;;0.13;;
50064;SDS011;35951;47.848;-122.338;2022-09-24T08:35:43;1.35;;;0.10;;
50064;SDS011;35951;47.848;-122.338;2022-09-24T08:38:13;0.70;;;0.20;;
50064;SDS011;35951;47.848;-122.338;2022-09-24T08:40:44;0.40;;;0.10;;
50064;SDS011;35951;47.848;-122.338;2022-09-24T08:46:30;2.27;;;0.20;;
50064;SDS011;35951;47.848;-122.338;2022-09-24T08:49:30;4.67;;;0.10;;
50064;SDS011;35951;47.848;-122.338;2022-09-24T08:54:53;4.25;;;0.20;;
50064;SDS011;35951;47.848;-122.338;2022-09-24T08:57:26;1.10;;;0.20;;
50064;SDS011;35951;47.848;-122.338;2022-09-24T08:59:54;1.33;;;0.20;;
50064;SDS011;35951;47.848;-122.338;2022-09-24T09:02:37;1.75;;;0.10;;
50064;SDS011;35951;47.848;-122.338;2022-09-24T09:05:38;0.70;;;0.10;;
50064;SDS011;35951;47.848;-122.338;2022-09-24T09:08:24;4.92;;;0.20;;
50064;SDS011;35951;47.848;-122.338;2022-09-24T09:13:25;1.12;;;0.20;;
50064;SDS011;35951;47.848;-122.338;2022-09-24T09:16:33;0.68;;;0.10;;
50064;SDS011;35951;47.848;-122.338;2022-09-24T09:19:04;1.15;;;0.20;;
50064;SDS011;35951;47.848;-122.338;2022-09-24T09:21:40;1.00;;;0.13;;
50064;SDS011;35951;47.848;-122.338;2022-09-24T09:24:17;1.70;;;0.20;;
50064;SDS011;35951;47.848;-122.338;2022-09-24T09:26:50;0.40;;;0.10;;
50064;SDS011;35951;47.848;-122.338;2022-09-24T09:29:22;1.82;;;0.20;;
50064;SDS011;35951;47.848;-122.338;2022-09-24T09:32:04;1.53;;;0.10;;
50064;SDS011;35951;47.848;-122.338;2022-09-24T09:34:57;0.50;;;0.10;;
50064;SDS011;35951;47.848;-122.338;2022-09-24T09:40:22;1.53;;;0.10;;
50064;SDS011;35951;47.848;-122.338;2022-09-24T09:43:02;0.53;;;0.10;;
50064;SDS011;35951;47.848;-122.338;2022-09-24T09:48:30;0.68;;;0.10;;
50064;SDS011;35951;47.848;-122.338;2022-09-24T09:51:03;0.40;;;0.10;;
50064;SDS011;35951;47.848;-122.338;2022-09-24T09:53:34;1.07;;;0.10;;
50064;SDS011;35951;47.848;-122.338;2022-09-24T09:56:03;1.37;;;0.20;;
50064;SDS011;35951;47.848;-122.338;2022-09-24T09:58:36;2.00;;;0.20;;
50064;SDS011;35951;47.848;-122.338;2022-09-24T10:01:08;0.37;;;0.10;;
50064;SDS011;35951;47.848;-122.338;2022-09-24T10:06:28;0.50;;;0.20;;
50064;SDS011;35951;47.848;-122.338;2022-09-24T10:09:10;1.98;;;0.20;;
50064;SDS011;35951;47.848;-122.338;2022-09-24T10:11:41;1.15;;;0.15;;
50064;SDS011;35951;47.848;-122.338;2022-09-24T10:14:12;0.50;;;0.10;;
50064;SDS011;35951;47.848;-122.338;2022-09-24T10:16:44;1.12;;;0.10;;
50064;SDS011;35951;47.848;-122.338;2022-09-24T10:19:17;1.10;;;0.10;;
50064;SDS011;35951;47.848;-122.338;2022-09-24T10:21:49;2.50;;;0.10;;
50064;SDS011;35951;47.848;-122.338;2022-09-24T10:24:25;3.52;;;0.20;;
50064;SDS011;35951;47.848;-122.338;2022-09-24T10:26:54;0.95;;;0.10;;
50064;SDS011;35951;47.848;-122.338;2022-09-24T10:29:29;0.60;;;0.15;;
50064;SDS011;35951;47.848;-122.338;2022-09-24T10:32:21;0.37;;;0.10;;
50064;SDS011;35951;47.848;-122.338;2022-09-24T10:37:27;0.40;;;0.10;;
50064;SDS011;35951;47.848;-122.338;2022-09-24T10:40:09;0.40;;;0.10;;
50064;SDS011;35951;47.848;-122.338;2022-09-24T10:42:40;0.80;;;0.10;;
50064;SDS011;35951;47.848;-122.338;2022-09-24T10:45:09;2.83;;;0.15;;
50064;SDS011;35951;47.848;-122.338;2022-09-24T10:47:51;0.50;;;0.10;;
50064;SDS011;35951;47.848;-122.338;2022-09-24T10:53:50;0.60;;;0.10;;
50064;SDS011;35951;47.848;-122.338;2022-09-24T10:55:51;0.47;;;0.10;;
50064;SDS011;35951;47.848;-122.338;2022-09-24T11:01:17;1.20;;;0.10;;
50064;SDS011;35951;47.848;-122.338;2022-09-24T11:21:55;2.90;;;0.10;;
50064;SDS011;35951;47.848;-122.338;2022-09-24T11:30:34;0.37;;;0.10;;
50064;SDS011;35951;47.848;-122.338;2022-09-24T11:39:12;0.68;;;0.10;;
50064;SDS011;35951;47.848;-122.338;2022-09-24T11:53:41;0.60;;;0.10;;
50064;SDS011;35951;47.848;-122.338;2022-09-24T11:56:29;1.95;;;0.20;;
50064;SDS011;35951;47.848;-122.338;2022-09-24T11:59:00;0.82;;;0.10;;
50064;SDS011;35951;47.848;-122.338;2022-09-24T12:01:55;0.65;;;0.10;;
50064;SDS011;35951;47.848;-122.338;2022-09-24T12:04:39;0.35;;;0.10;;
50064;SDS011;35951;47.848;-122.338;2022-09-24T12:07:17;0.30;;;0.10;;
50064;SDS011;35951;47.848;-122.338;2022-09-24T12:13:11;0.80;;;0.10;;
50064;SDS011;35951;47.848;-122.338;2022-09-24T12:21:24;0.35;;;0.10;;
50064;SDS011;35951;47.848;-122.338;2022-09-24T12:23:52;0.95;;;0.10;;
50064;SDS011;35951;47.848;-122.338;2022-09-24T12:26:25;0.75;;;0.10;;
50064;SDS011;35951;47.848;-122.338;2022-09-24T12:29:08;0.13;;;0.00;;
50064;SDS011;35951;47.848;-122.338;2022-09-24T12:31:59;0.20;;;0.10;;
50064;SDS011;35951;47.848;-122.338;2022-09-24T12:34:54;0.30;;;0.10;;
50064;SDS011;35951;47.848;-122.338;2022-09-24T12:37:35;0.40;;;0.10;;
50064;SDS011;35951;47.848;-122.338;2022-09-24T12:42:55;0.30;;;0.10;;
50064;SDS011;35951;47.848;-122.338;2022-09-24T12:45:25;0.20;;;0.10;;
50064;SDS011;35951;47.848;-122.338;2022-09-24T12:47:55;0.25;;;0.00;;
50064;SDS011;35951;47.848;-122.338;2022-09-24T12:50:28;0.30;;;0.03;;
50064;SDS011;35951;47.848;-122.338;2022-09-24T12:52:56;3.58;;;0.10;;
50064;SDS011;35951;47.848;-122.338;2022-09-24T12:55:24;0.10;;;0.00;;
50064;SDS011;35951;47.848;-122.338;2022-09-24T12:57:56;0.20;;;0.00;;
50064;SDS011;35951;47.848;-122.338;2022-09-24T13:00:40;0.28;;;0.03;;
50064;SDS011;35951;47.848;-122.338;2022-09-24T13:06:03;0.17;;;0.03;;
50064;SDS011;35951;47.848;-122.338;2022-09-24T13:08:46;4.60;;;0.00;;
50064;SDS011;35951;47.848;-122.338;2022-09-24T13:11:28;0.20;;;0.00;;
50064;SDS011;35951;47.848;-122.338;2022-09-24T13:14:04;0.00;;;0.00;;
50064;SDS011;35951;47.848;-122.338;2022-09-24T13:16:41;0.20;;;0.00;;
50064;SDS011;35951;47.848;-122.338;2022-09-24T13:19:21;0.30;;;0.00;;
50064;SDS011;35951;47.848;-122.338;2022-09-24T13:21:54;0.45;;;0.00;;
50064;SDS011;35951;47.848;-122.338;2022-09-24T13:24:26;0.33;;;0.00;;
50064;SDS011;35951;47.848;-122.338;2022-09-24T13:27:59;0.10;;;0.00;;
50064;SDS011;35951;47.848;-122.338;2022-09-24T13:30:03;0.80;;;0.00;;
50064;SDS011;35951;47.848;-122.338;2022-09-24T13:32:51;0.00;;;0.00;;
50064;SDS011;35951;47.848;-122.338;2022-09-24T13:36:15;0.17;;;0.00;;
50064;SDS011;35951;47.848;-122.338;2022-09-24T13:38:29;1.15;;;0.00;;
50064;SDS011;35951;47.848;-122.338;2022-09-24T13:44:21;0.30;;;0.00;;
50064;SDS011;35951;47.848;-122.338;2022-09-24T13:47:10;0.20;;;0.00;;
50064;SDS011;35951;47.848;-122.338;2022-09-24T13:49:40;6.55;;;0.00;;
50064;SDS011;35951;47.848;-122.338;2022-09-24T13:52:13;0.00;;;0.00;;
50064;SDS011;35951;47.848;-122.338;2022-09-24T13:55:06;0.47;;;0.00;;
50064;SDS011;35951;47.848;-122.338;2022-09-24T13:58:04;0.37;;;0.00;;
50064;SDS011;35951;47.848;-122.338;2022-09-24T14:00:35;0.15;;;0.00;;
50064;SDS011;35951;47.848;-122.338;2022-09-24T14:05:58;0.35;;;0.00;;
50064;SDS011;35951;47.848;-122.338;2022-09-24T14:08:27;2.72;;;0.00;;
50064;SDS011;35951;47.848;-122.338;2022-09-24T14:11:05;0.20;;;0.00;;
50064;SDS011;35951;47.848;-122.338;2022-09-24T14:13:49;0.20;;;0.00;;
50064;SDS011;35951;47.848;-122.338;2022-09-24T14:16:17;1.65;;;0.00;;
50064;SDS011;35951;47.848;-122.338;2022-09-24T14:18:46;0.15;;;0.00;;
50064;SDS011;35951;47.848;-122.338;2022-09-24T14:23:52;0.60;;;0.00;;
50064;SDS011;35951;47.848;-122.338;2022-09-24T14:29:10;0.87;;;0.00;;
50064;SDS011;35951;47.848;-122.338;2022-09-24T14:31:46;0.70;;;0.00;;
50064;SDS011;35951;47.848;-122.338;2022-09-24T14:34:24;0.65;;;0.00;;
50064;SDS011;35951;47.848;-122.338;2022-09-24T14:37:20;0.42;;;0.00;;
50064;SDS011;35951;47.848;-122.338;2022-09-24T14:40:13;0.57;;;0.03;;
50064;SDS011;35951;47.848;-122.338;2022-09-24T14:42:34;3.47;;;0.00;;
50064;SDS011;35951;47.848;-122.338;2022-09-24T14:45:09;0.30;;;0.00;;
50064;SDS011;35951;47.848;-122.338;2022-09-24T14:47:44;0.23;;;0.00;;
50064;SDS011;35951;47.848;-122.338;2022-09-24T14:50:32;0.20;;;0.00;;
50064;SDS011;35951;47.848;-122.338;2022-09-24T14:53:12;0.15;;;0.00;;
50064;SDS011;35951;47.848;-122.338;2022-09-24T14:55:49;0.00;;;0.00;;
50064;SDS011;35951;47.848;-122.338;2022-09-24T14:58:35;0.23;;;0.00;;
50064;SDS011;35951;47.848;-122.338;2022-09-24T15:00:58;0.03;;;0.00;;
50064;SDS011;35951;47.848;-122.338;2022-09-24T15:03:46;0.13;;;0.00;;
50064;SDS011;35951;47.848;-122.338;2022-09-24T15:08:54;0.00;;;0.00;;
50064;SDS011;35951;47.848;-122.338;2022-09-24T15:11:30;0.10;;;0.00;;
50064;SDS011;35951;47.848;-122.338;2022-09-24T15:14:02;0.70;;;0.00;;
50064;SDS011;35951;47.848;-122.338;2022-09-24T15:16:44;0.15;;;0.00;;
50064;SDS011;35951;47.848;-122.338;2022-09-24T15:21:51;0.28;;;0.00;;
50064;SDS011;35951;47.848;-122.338;2022-09-24T15:24:22;0.33;;;0.00;;
50064;SDS011;35951;47.848;-122.338;2022-09-24T15:27:04;0.10;;;0.00;;
50064;SDS011;35951;47.848;-122.338;2022-09-24T15:29:52;0.10;;;0.00;;
50064;SDS011;35951;47.848;-122.338;2022-09-24T15:32:21;0.23;;;0.00;;
50064;SDS011;35951;47.848;-122.338;2022-09-24T15:34:50;0.10;;;0.00;;
50064;SDS011;35951;47.848;-122.338;2022-09-24T15:37:22;0.45;;;0.10;;
50064;SDS011;35951;47.848;-122.338;2022-09-24T15:39:54;0.10;;;0.00;;
50064;SDS011;35951;47.848;-122.338;2022-09-24T15:42:26;0.20;;;0.00;;
50064;SDS011;35951;47.848;-122.338;2022-09-24T15:44:54;0.10;;;0.00;;
50064;SDS011;35951;47.848;-122.338;2022-09-24T15:47:23;0.20;;;0.00;;
50064;SDS011;35951;47.848;-122.338;2022-09-24T15:49:51;0.10;;;0.00;;
50064;SDS011;35951;47.848;-122.338;2022-09-24T15:52:20;0.35;;;0.00;;
50064;SDS011;35951;47.848;-122.338;2022-09-24T15:54:54;0.30;;;0.00;;
50064;SDS011;35951;47.848;-122.338;2022-09-24T15:57:23;0.10;;;0.00;;
50064;SDS011;35951;47.848;-122.338;2022-09-24T15:59:51;0.50;;;0.00;;
50064;SDS011;35951;47.848;-122.338;2022-09-24T16:04:59;0.25;;;0.10;;
50064;SDS011;35951;47.848;-122.338;2022-09-24T16:07:26;0.10;;;0.00;;
50064;SDS011;35951;47.848;-122.338;2022-09-24T16:09:54;0.28;;;0.05;;
50064;SDS011;35951;47.848;-122.338;2022-09-24T16:12:21;0.57;;;0.10;;
50064;SDS011;35951;47.848;-122.338;2022-09-24T16:14:51;0.10;;;0.00;;
50064;SDS011;35951;47.848;-122.338;2022-09-24T16:17:20;0.72;;;0.00;;
50064;SDS011;35951;47.848;-122.338;2022-09-24T16:19:47;0.15;;;0.00;;
50064;SDS011;35951;47.848;-122.338;2022-09-24T16:22:15;2.05;;;0.00;;
50064;SDS011;35951;47.848;-122.338;2022-09-24T16:24:43;0.47;;;0.00;;
50064;SDS011;35951;47.848;-122.338;2022-09-24T16:27:11;0.80;;;0.10;;
50064;SDS011;35951;47.848;-122.338;2022-09-24T16:29:40;0.20;;;0.03;;
50064;SDS011;35951;47.848;-122.338;2022-09-24T16:32:08;0.30;;;0.10;;
50064;SDS011;35951;47.848;-122.338;2022-09-24T16:34:36;0.20;;;0.10;;
50064;SDS011;35951;47.848;-122.338;2022-09-24T16:37:04;0.98;;;0.10;;
50064;SDS011;35951;47.848;-122.338;2022-09-24T16:39:34;1.05;;;0.10;;
50064;SDS011;35951;47.848;-122.338;2022-09-24T16:42:02;0.57;;;0.10;;
50064;SDS011;35951;47.848;-122.338;2022-09-24T16:44:30;1.62;;;0.10;;
50064;SDS011;35951;47.848;-122.338;2022-09-24T16:46:58;0.30;;;0.10;;
50064;SDS011;35951;47.848;-122.338;2022-09-24T16:49:26;0.82;;;0.10;;
50064;SDS011;35951;47.848;-122.338;2022-09-24T16:51:54;0.60;;;0.13;;
50064;SDS011;35951;47.848;-122.338;2022-09-24T16:54:22;0.50;;;0.10;;